Aérodrome :
LOGIN :

S'inscrire | Disclaimer

   EN    FR    IT 

 










Légende :    VFR   VFR Marginal   IFR   IFR Intensif   IFR Très Intensif
Visi : 
Plafond : 
>= 8 km
>= 3000ft
5 à 8 km
1000 à 3000 ft
1500m à 5 km
500 à 1000 ft
800 à 1500m
200 à 500 ft
< 800m
< 200 ft
Symboles :   Orages  Brouillard  Fortes neiges  Fortes précipitations  Vent > 20 kt
SIGMETs :   Divers  Orages  Givrage  Turbulence  Onde Orograph.  Cendres Volcan.







- Altitude de l'aérodrome : 257 ft
- Code IATA : MAN
- Voir les cartes d'approche


EGCC - Manchester

DERNIER METAR :
  • 200550Z AUTO 15003KT 9999 NCD 07/04 Q1032 NOSIG

METARs EXPIRÉS :
  • 200520Z AUTO VRB01KT 9999 NCD 06/04 Q1032 NOSIG
  • 200450Z AUTO VRB01KT 9000 NCD 06/04 Q1032
  • 200420Z AUTO 11002KT 9999 NCD 06/05 Q1032
  • 200350Z AUTO 13002KT 9999 NCD 06/05 Q1032
  • 200320Z AUTO 13002KT 9999 NCD 06/04 Q1032

TAF TAF EGCC
Valide du 20 à 06h jusqu'au 21 à 12h UTC


200509Z 2006/2112 VRB04KT 9000 NSC
BECMG 2006/2009 CAVOK
TEMPO 2100/2109 8000
ATIS : +44 161 499 2324
Pas de NOTAMs connus pour ce terrain.



MET'MAP, la Météo Aéronautique d'un coup d'oeil ! - Copyright ORBIFLY Décembre 2007 - Disclaimer

ORBIFLY MET'MAP TEAM :

Programmation & Développement : Alexandra Zaïnal
Conception & Développement : Baudouin d'Aumeries
Co-Programmation & Développement : Marc-Olivier Méhu
Soutien technique & logistique : Manuel Goepfert

Contact : metmap@orbifly.com




SOURCES & CREDITS :

   NOAA